createdAt,value
2023-02-11T08:05:55.494Z,99971.31
2023-02-11T08:07:31.783Z,99975.41
2023-02-11T08:09:29.445Z,99979.03
2023-02-11T08:11:33.388Z,99980.09
2023-02-11T08:13:34.492Z,99975.81
2023-02-11T08:26:50.890Z,99962.50
2023-02-11T08:28:00.846Z,99955.59
2023-02-11T08:50:54.076Z,99934.91
2023-02-11T08:52:04.363Z,99934.38
2023-02-11T08:53:12.392Z,99925.72
2023-02-11T10:26:46.852Z,99750.50
2023-02-11T10:27:51.916Z,99749.56
2023-02-11T10:29:05.167Z,99742.34
2023-02-11T10:30:33.573Z,99738.69
2023-02-11T10:31:46.217Z,99742.03
2023-02-11T10:32:55.614Z,99749.88
2023-02-11T10:34:06.276Z,99741.56
2023-02-11T10:35:24.711Z,99744.91
2023-02-11T10:36:37.877Z,99739.97
2023-02-11T10:37:44.542Z,99738.53
2023-02-11T10:38:51.716Z,99735.47
2023-02-11T10:40:01.118Z,99739.63
2023-02-11T10:41:05.638Z,99723.34
2023-02-11T10:42:13.308Z,99725.84
2023-02-11T13:06:13.357Z,99445.56
2023-02-11T13:07:26.688Z,99451.97
2023-02-11T13:08:31.715Z,99441.16
2023-02-11T13:09:45.723Z,99444.09
2023-02-11T13:11:02.583Z,99438.25
2023-02-11T13:12:34.746Z,99432.56
2023-02-11T13:13:44.093Z,99429.25
2023-02-11T13:14:57.071Z,99426.81
2023-02-11T13:16:20.837Z,99428.47
2023-02-11T13:17:43.967Z,99412.44
2023-02-11T13:18:58.654Z,99408.13
2023-02-11T13:20:37.924Z,99410.97
2023-02-11T13:22:17.882Z,99409.81
2023-02-11T13:23:44.990Z,99405.25
2023-02-11T13:25:03.518Z,99406.19
2023-02-11T13:26:38.242Z,99401.63
2023-02-11T13:28:36.616Z,99399.69
2023-02-11T13:29:55.734Z,99385.81
2023-02-11T13:31:12.207Z,99384.84
2023-02-11T13:32:27.095Z,99372.63
2023-02-11T13:33:36.830Z,99367.97
2023-02-11T13:34:59.640Z,99378.47
2023-02-11T13:36:05.932Z,99366.00
2023-02-11T13:37:22.671Z,99364.41
2023-02-11T13:39:02.977Z,99364.91
2023-02-11T13:40:38.327Z,99372.09
2023-02-11T13:41:44.272Z,99358.16
2023-02-11T13:42:54.010Z,99349.22
2023-02-11T13:44:22.761Z,99360.78
2023-02-11T13:45:30.307Z,99345.84
2023-02-11T13:47:29.094Z,99346.75
2023-02-11T13:48:57.091Z,99339.41
2023-02-11T13:50:15.041Z,99335.22
2023-02-11T13:51:37.140Z,99332.97
2023-02-11T13:52:50.396Z,99324.03
2023-02-11T13:54:02.950Z,99318.50
2023-02-11T14:02:53.912Z,99298.38
2023-02-11T14:04:40.950Z,99293.22
2023-02-11T14:06:28.727Z,99299.25
2023-02-11T14:07:53.163Z,99297.66
2023-02-11T14:09:37.744Z,99292.44
2023-02-11T14:10:54.943Z,99288.69
2023-02-11T14:12:31.876Z,99277.31
2023-02-11T14:14:13.769Z,99278.44
2023-02-11T14:18:55.468Z,99269.09
2023-02-11T14:19:59.427Z,99258.34
2023-02-11T14:21:26.735Z,99270.16
2023-02-11T14:22:59.075Z,99254.22
2023-02-11T14:24:05.862Z,99256.78
2023-02-11T14:25:22.606Z,99238.59
2023-02-11T14:26:55.828Z,99251.06
2023-02-11T14:28:25.285Z,99238.88
2023-02-11T14:29:46.305Z,99247.22
2023-02-11T14:31:07.521Z,99237.56
2023-02-11T14:32:48.975Z,99235.19
2023-02-11T14:34:00.451Z,99218.53
2023-02-11T14:35:31.087Z,99222.59
2023-02-11T14:36:52.218Z,99217.84
2023-02-11T14:38:10.359Z,99216.34
2023-02-11T14:39:53.697Z,99212.22
2023-02-11T14:41:12.106Z,99217.34
2023-02-11T14:42:22.781Z,99218.59
2023-02-11T14:47:23.132Z,99204.56
2023-02-11T14:48:42.864Z,99194.94
2023-02-11T14:49:50.307Z,99187.06
2023-02-11T14:51:00.419Z,99191.13
2023-02-11T14:52:10.873Z,99188.78
2023-02-11T14:53:24.952Z,99191.06
2023-02-11T14:54:29.465Z,99180.59
2023-02-11T14:55:45.443Z,99192.38
2023-02-11T14:57:22.416Z,99168.38
2023-02-11T14:58:48.679Z,99179.13
2023-02-11T15:01:38.202Z,99158.25
2023-02-11T15:02:51.361Z,99165.97
2023-02-11T15:04:05.364Z,99168.13
2023-02-11T15:05:21.157Z,99157.53
2023-02-11T15:06:32.532Z,99147.91
2023-02-11T15:07:37.887Z,99139.38
2023-02-11T15:14:38.359Z,99128.84
2023-02-11T15:15:42.024Z,99131.56
2023-02-11T15:16:49.211Z,99123.59
2023-02-11T15:17:52.581Z,99125.84
2023-02-11T15:24:31.602Z,99111.31
2023-02-11T15:25:51.789Z,99105.31
2023-02-11T15:28:52.798Z,99096.66
2023-02-11T15:29:57.705Z,99101.22
2023-02-11T15:31:27.804Z,99088.41
2023-02-11T15:32:38.784Z,99093.09
2023-02-11T15:33:43.112Z,99087.69
2023-02-11T15:35:03.776Z,99084.97
2023-02-11T15:36:16.759Z,99082.69
2023-02-11T15:37:31.696Z,99079.63
2023-02-11T15:38:44.774Z,99067.50
2023-02-11T15:45:33.518Z,99081.72
2023-02-11T15:46:41.126Z,99076.38
2023-02-11T15:47:56.621Z,99064.25
2023-02-11T15:49:06.991Z,99055.91
2023-02-11T15:56:44.698Z,99053.97
2023-02-11T15:58:07.843Z,99058.03
2023-02-11T15:59:32.977Z,99059.13
2023-02-11T16:00:48.818Z,99052.59
2023-02-11T16:01:56.513Z,99055.97
2023-02-11T16:03:05.348Z,99042.63
2023-02-11T16:05:57.175Z,99046.72
2023-02-11T16:07:04.734Z,99052.38
2023-02-11T16:08:26.618Z,99048.19
2023-02-11T16:09:36.472Z,99035.97
2023-02-11T16:10:58.684Z,99043.44
2023-02-11T16:12:24.925Z,99032.25
2023-02-11T16:13:41.199Z,99050.00
2023-02-11T16:14:45.280Z,99045.22
2023-02-11T16:16:10.674Z,99029.25
2023-02-11T16:26:54.798Z,99014.56
2023-02-11T16:28:07.898Z,99025.88
2023-02-11T16:29:19.743Z,99016.16
2023-02-11T16:30:44.830Z,99029.72
2023-02-11T16:31:50.811Z,99013.69
2023-02-11T16:32:55.320Z,99005.72
2023-02-11T16:33:59.559Z,99017.06
2023-02-11T16:35:19.229Z,99007.09
2023-02-11T16:36:28.497Z,98997.38
2023-02-11T16:37:33.656Z,99006.88
2023-02-11T16:38:36.540Z,98999.28
2023-02-11T16:39:43.181Z,99005.19
2023-02-11T16:40:53.134Z,99002.00
2023-02-11T16:41:56.573Z,98999.88
2023-02-11T16:43:09.422Z,99000.31
2023-02-11T16:44:17.735Z,99000.53
2023-02-11T16:45:22.905Z,98996.03
2023-02-11T16:46:34.996Z,99002.13
2023-02-11T16:47:49.770Z,99000.22
2023-02-11T16:49:11.581Z,98986.53
2023-02-11T16:50:26.847Z,98991.03
2023-02-11T16:58:48.118Z,98971.13
2023-02-11T17:00:08.366Z,98964.97
2023-02-11T17:01:30.685Z,98967.16
2023-02-11T17:02:45.162Z,98968.72
2023-02-11T17:04:34.244Z,98958.19
2023-02-11T17:05:56.071Z,98959.78
2023-02-11T17:07:26.301Z,98951.88
2023-02-11T17:08:35.318Z,98947.56
2023-02-11T17:09:46.625Z,98939.09
2023-02-11T17:10:54.177Z,98944.84
2023-02-11T17:12:15.521Z,98949.16
2023-02-11T17:13:43.646Z,98934.66
2023-02-11T17:15:00.275Z,98927.19
2023-02-11T17:16:07.828Z,98934.44
2023-02-11T17:17:20.706Z,98921.53
2023-02-11T17:18:24.541Z,98928.78
2023-02-11T17:19:35.585Z,98924.94
